American Star — WDD7311 — position and weather

sailwx.info

Track history (hours):
 
Tides and Currents Weather Stations Pressure Air Temp Water Temp Dewpoint Dewpoint Depression Visibility Wind Speed Wind Dir Waves Ship Positions

American Star

Owner: American Cruise Lines, Inc, Delmar, DE. More information available from US FCC via Universal Licensing System and Coast Guard Vessel Documentation Center.

Last reported at 2015-May-21 09:26 UTC. Time now 2015-May-25 11:37 UTC.
Position N 32°26' W 080°40'.

Length 60 m; draft 2.1 m.

Type: Ship (hazmat cat C). MMSI: 367184740.

Date/timePositionNaut miles runAvg speedWind from/ knotsBaromVisibWave heightAir tempDewpointWater temp
2015-May-21 09:26N 32°26' W 080°40'13 1.1
2015-May-20 21:33N 32°14' W 080°47'5 5.4
2015-May-20 20:32N 32°08' W 080°49'0 0.0
2015-May-20 19:32N 32°08' W 080°49'0 0.0
2015-May-20 18:32N 32°08' W 080°49'0 0.0
2015-May-20 17:29N 32°08' W 080°49'0 0.0
2015-May-20 16:32N 32°08' W 080°49'0 0.0
2015-May-20 15:32N 32°08' W 080°49'1 0.9
2015-May-20 14:33N 32°09' W 080°50'6 5.8
2015-May-20 13:33N 32°05' W 080°55'5 5.4
2015-May-20 12:33N 32°05' W 081°01'3 3.4
2015-May-20 11:33N 32°05' W 081°05'0 0.0
2015-May-20 10:33N 32°05' W 081°05'0 0.0
2015-May-20 09:33N 32°05' W 081°05'0 0.0
2015-May-20 08:33N 32°05' W 081°05'0 0.0
2015-May-20 07:33N 32°05' W 081°05'0 0.0
2015-May-20 06:33N 32°05' W 081°05'0 0.0
2015-May-20 05:33N 32°05' W 081°05'0 0.0
2015-May-20 04:33N 32°05' W 081°05'0 0.0
2015-May-20 03:33N 32°05' W 081°05'0 0.0
2015-May-20 02:33N 32°05' W 081°05'0 0.0
2015-May-20 01:33N 32°05' W 081°05'0 0.0
2015-May-20 00:33N 32°05' W 081°05'0 0.0
2015-May-19 23:33N 32°05' W 081°05'0 0.0
2015-May-19 22:33N 32°05' W 081°05'0 0.0
2015-May-19 21:33N 32°05' W 081°05'0 0.0
2015-May-19 20:33N 32°05' W 081°05'0 0.0
2015-May-19 19:33N 32°05' W 081°05'0 0.0
2015-May-19 18:33N 32°05' W 081°05'0 0.0
2015-May-19 17:33N 32°05' W 081°05'0 0.0
2015-May-19 16:33N 32°05' W 081°05'0 0.0
2015-May-19 15:33N 32°05' W 081°05'0 0.0
2015-May-19 14:33N 32°05' W 081°05'0 0.0
2015-May-19 13:33N 32°05' W 081°05'0 0.0
2015-May-19 12:32N 32°05' W 081°05'0 0.0
2015-May-19 11:32N 32°05' W 081°05'0 0.0
2015-May-19 10:32N 32°05' W 081°05'0 0.0
2015-May-19 09:32N 32°05' W 081°05'0 0.0
2015-May-19 08:32N 32°05' W 081°05'0 0.0
2015-May-19 07:32N 32°05' W 081°05'0 0.0
2015-May-19 06:33N 32°05' W 081°05'0 0.0
2015-May-19 05:32N 32°05' W 081°05'0 0.0
2015-May-19 04:32N 32°05' W 081°05'0 0.0
2015-May-19 03:32N 32°05' W 081°05'0 0.0
2015-May-19 02:32N 32°05' W 081°05'5 5.4
2015-May-19 01:33N 32°05' W 080°59'4 4.2
2015-May-19 00:33N 32°01' W 081°02'6 5.7
2015-May-18 23:33N 31°56' W 081°05'5 4.9
2015-May-18 22:33N 31°52' W 081°07'7 6.9
2015-May-18 21:32N 31°45' W 081°10'  
2015-May-13 12:17N 31°39' W 081°12'6 6.0
2015-May-13 11:18N 31°45' W 081°10'6 6.2
2015-May-13 10:24N 31°51' W 081°09'4 4.9
2015-May-13 09:33N 31°53' W 081°05'6 5.6
2015-May-13 08:33N 31°59' W 081°03'4 4.4
2015-May-13 07:33N 32°03' W 081°02'3 2.7
2015-May-13 06:33N 32°06' W 081°01'4 3.5
2015-May-13 05:31N 32°05' W 081°05'0 0.0
2015-May-13 04:31N 32°05' W 081°05'0 0.0
2015-May-13 03:31N 32°05' W 081°05'0 0.0
2015-May-13 02:25N 32°05' W 081°05'0 0.0
2015-May-13 01:22N 32°05' W 081°05'0 0.0
2015-May-13 00:31N 32°05' W 081°05'0 0.0
2015-May-12 23:31N 32°05' W 081°05'0 0.0
2015-May-12 22:31N 32°05' W 081°05'0 0.0
2015-May-12 21:31N 32°05' W 081°05'0 0.0
2015-May-12 20:28N 32°05' W 081°05'0 0.0
2015-May-12 19:31N 32°05' W 081°05'0 0.0
2015-May-12 18:28N 32°05' W 081°05'0 0.0
2015-May-12 17:31N 32°05' W 081°05'0 0.0
2015-May-12 16:31N 32°05' W 081°05'0 0.0
2015-May-12 15:25N 32°05' W 081°05'0 0.0
2015-May-12 14:31N 32°05' W 081°05'0 0.0
2015-May-12 13:28N 32°05' W 081°05'0 0.0
2015-May-12 12:31N 32°05' W 081°05'0 0.0
2015-May-12 11:31N 32°05' W 081°05'0 0.0
2015-May-12 09:31N 32°05' W 081°05'0 0.0
2015-May-12 07:22N 32°05' W 081°05'0 0.0
2015-May-12 06:22N 32°05' W 081°05'0 0.0
2015-May-12 05:28N 32°05' W 081°05'0 0.0
2015-May-12 04:31N 32°05' W 081°05'0 0.0
2015-May-12 03:04N 32°05' W 081°05'0 0.0
2015-May-12 02:31N 32°05' W 081°05'0 0.0
2015-May-12 01:28N 32°05' W 081°05'0 0.0
2015-May-12 00:31N 32°05' W 081°05'0 0.0
2015-May-11 23:31N 32°05' W 081°05'4 4.2
2015-May-11 22:33N 32°06' W 081°01'6 6.0
2015-May-11 21:33N 32°06' W 080°54'4 4.2
2015-May-11 20:32N 32°08' W 080°49'0 0.0
2015-May-11 19:32N 32°08' W 080°49'0 0.0
2015-May-11 18:32N 32°08' W 080°49'0 0.0
2015-May-11 17:32N 32°08' W 080°49'0 0.0
2015-May-11 16:32N 32°08' W 080°49'0 0.0
2015-May-11 15:32N 32°08' W 080°49'3 3.0
2015-May-11 14:34N 32°11' W 080°47'  
Track history (hours):
 
Tides and Currents Weather Stations Pressure Air Temp Water Temp Dewpoint Dewpoint Depression Visibility Wind Speed Wind Dir Waves Ship Positions

American Star

Owner: American Cruise Lines, Inc, Delmar, DE. More information available from US FCC via Universal Licensing System and Coast Guard Vessel Documentation Center.

Last reported at 2015-May-21 09:26 UTC. Time now 2015-May-25 11:37 UTC.
Position N 32°26' W 080°40'.

Length 60 m; draft 2.1 m.

Type: Ship (hazmat cat C). MMSI: 367184740.

Date/timePositionNaut miles runAvg speedWind from/ knotsBaromVisibWave heightAir tempDewpointWater temp
2015-May-21 09:26N 32°26' W 080°40'13 1.1
2015-May-20 21:33N 32°14' W 080°47'5 5.4
2015-May-20 20:32N 32°08' W 080°49'0 0.0
2015-May-20 19:32N 32°08' W 080°49'0 0.0
2015-May-20 18:32N 32°08' W 080°49'0 0.0
2015-May-20 17:29N 32°08' W 080°49'0 0.0
2015-May-20 16:32N 32°08' W 080°49'0 0.0
2015-May-20 15:32N 32°08' W 080°49'1 0.9
2015-May-20 14:33N 32°09' W 080°50'6 5.8
2015-May-20 13:33N 32°05' W 080°55'5 5.4
2015-May-20 12:33N 32°05' W 081°01'3 3.4
2015-May-20 11:33N 32°05' W 081°05'0 0.0
2015-May-20 10:33N 32°05' W 081°05'0 0.0
2015-May-20 09:33N 32°05' W 081°05'0 0.0
2015-May-20 08:33N 32°05' W 081°05'0 0.0
2015-May-20 07:33N 32°05' W 081°05'0 0.0
2015-May-20 06:33N 32°05' W 081°05'0 0.0
2015-May-20 05:33N 32°05' W 081°05'0 0.0
2015-May-20 04:33N 32°05' W 081°05'0 0.0
2015-May-20 03:33N 32°05' W 081°05'0 0.0
2015-May-20 02:33N 32°05' W 081°05'0 0.0
2015-May-20 01:33N 32°05' W 081°05'0 0.0
2015-May-20 00:33N 32°05' W 081°05'0 0.0
2015-May-19 23:33N 32°05' W 081°05'0 0.0
2015-May-19 22:33N 32°05' W 081°05'0 0.0
2015-May-19 21:33N 32°05' W 081°05'0 0.0
2015-May-19 20:33N 32°05' W 081°05'0 0.0
2015-May-19 19:33N 32°05' W 081°05'0 0.0
2015-May-19 18:33N 32°05' W 081°05'0 0.0
2015-May-19 17:33N 32°05' W 081°05'0 0.0
2015-May-19 16:33N 32°05' W 081°05'0 0.0
2015-May-19 15:33N 32°05' W 081°05'0 0.0
2015-May-19 14:33N 32°05' W 081°05'0 0.0
2015-May-19 13:33N 32°05' W 081°05'0 0.0
2015-May-19 12:32N 32°05' W 081°05'0 0.0
2015-May-19 11:32N 32°05' W 081°05'0 0.0
2015-May-19 10:32N 32°05' W 081°05'0 0.0
2015-May-19 09:32N 32°05' W 081°05'0 0.0
2015-May-19 08:32N 32°05' W 081°05'0 0.0
2015-May-19 07:32N 32°05' W 081°05'0 0.0
2015-May-19 06:33N 32°05' W 081°05'0 0.0
2015-May-19 05:32N 32°05' W 081°05'0 0.0
2015-May-19 04:32N 32°05' W 081°05'0 0.0
2015-May-19 03:32N 32°05' W 081°05'0 0.0
2015-May-19 02:32N 32°05' W 081°05'5 5.4
2015-May-19 01:33N 32°05' W 080°59'4 4.2
2015-May-19 00:33N 32°01' W 081°02'6 5.7
2015-May-18 23:33N 31°56' W 081°05'5 4.9
2015-May-18 22:33N 31°52' W 081°07'7 6.9
2015-May-18 21:32N 31°45' W 081°10'  
2015-May-13 12:17N 31°39' W 081°12'6 6.0
2015-May-13 11:18N 31°45' W 081°10'6 6.2
2015-May-13 10:24N 31°51' W 081°09'4 4.9
2015-May-13 09:33N 31°53' W 081°05'6 5.6
2015-May-13 08:33N 31°59' W 081°03'4 4.4
2015-May-13 07:33N 32°03' W 081°02'3 2.7
2015-May-13 06:33N 32°06' W 081°01'4 3.5
2015-May-13 05:31N 32°05' W 081°05'0 0.0
2015-May-13 04:31N 32°05' W 081°05'0 0.0
2015-May-13 03:31N 32°05' W 081°05'0 0.0
2015-May-13 02:25N 32°05' W 081°05'0 0.0
2015-May-13 01:22N 32°05' W 081°05'0 0.0
2015-May-13 00:31N 32°05' W 081°05'0 0.0
2015-May-12 23:31N 32°05' W 081°05'0 0.0
2015-May-12 22:31N 32°05' W 081°05'0 0.0
2015-May-12 21:31N 32°05' W 081°05'0 0.0
2015-May-12 20:28N 32°05' W 081°05'0 0.0
2015-May-12 19:31N 32°05' W 081°05'0 0.0
2015-May-12 18:28N 32°05' W 081°05'0 0.0
2015-May-12 17:31N 32°05' W 081°05'0 0.0
2015-May-12 16:31N 32°05' W 081°05'0 0.0
2015-May-12 15:25N 32°05' W 081°05'0 0.0
2015-May-12 14:31N 32°05' W 081°05'0 0.0
2015-May-12 13:28N 32°05' W 081°05'0 0.0
2015-May-12 12:31N 32°05' W 081°05'0 0.0
2015-May-12 11:31N 32°05' W 081°05'0 0.0
2015-May-12 09:31N 32°05' W 081°05'0 0.0
2015-May-12 07:22N 32°05' W 081°05'0 0.0
2015-May-12 06:22N 32°05' W 081°05'0 0.0
2015-May-12 05:28N 32°05' W 081°05'0 0.0
2015-May-12 04:31N 32°05' W 081°05'0 0.0
2015-May-12 03:04N 32°05' W 081°05'0 0.0
2015-May-12 02:31N 32°05' W 081°05'0 0.0
2015-May-12 01:28N 32°05' W 081°05'0 0.0
2015-May-12 00:31N 32°05' W 081°05'0 0.0
2015-May-11 23:31N 32°05' W 081°05'4 4.2
2015-May-11 22:33N 32°06' W 081°01'6 6.0
2015-May-11 21:33N 32°06' W 080°54'4 4.2
2015-May-11 20:32N 32°08' W 080°49'0 0.0
2015-May-11 19:32N 32°08' W 080°49'0 0.0
2015-May-11 18:32N 32°08' W 080°49'0 0.0
2015-May-11 17:32N 32°08' W 080°49'0 0.0
2015-May-11 16:32N 32°08' W 080°49'0 0.0
2015-May-11 15:32N 32°08' W 080°49'3 3.0
2015-May-11 14:34N 32°11' W 080°47'  

Dump ship's entire track history